sensor_id;sensor_type;location;lat;lon;timestamp;pressure;altitude;pressure_sealevel;temperature;humidity
54038;BME280;39954;48.844;9.726;2024-01-30T00:00:23;97384.94;;;-1.49;100.00
54038;BME280;39954;48.844;9.726;2024-01-30T00:01:28;97382.38;;;-1.52;100.00
54038;BME280;39954;48.844;9.726;2024-01-30T00:02:31;97383.19;;;-1.56;100.00
54038;BME280;39954;48.844;9.726;2024-01-30T00:03:36;97389.13;;;-1.55;100.00
54038;BME280;39954;48.844;9.726;2024-01-30T00:04:38;97388.25;;;-1.58;100.00
54038;BME280;39954;48.844;9.726;2024-01-30T00:05:45;97384.84;;;-1.60;100.00
54038;BME280;39954;48.844;9.726;2024-01-30T00:06:48;97379.69;;;-1.63;100.00
54038;BME280;39954;48.844;9.726;2024-01-30T00:07:52;97379.75;;;-1.60;100.00
54038;BME280;39954;48.844;9.726;2024-01-30T00:08:55;97379.69;;;-1.63;100.00
54038;BME280;39954;48.844;9.726;2024-01-30T00:09:59;97382.22;;;-1.63;100.00
54038;BME280;39954;48.844;9.726;2024-01-30T00:11:02;97382.22;;;-1.64;100.00
54038;BME280;39954;48.844;9.726;2024-01-30T00:12:07;97382.19;;;-1.67;100.00
54038;BME280;39954;48.844;9.726;2024-01-30T00:13:09;97377.94;;;-1.67;100.00
54038;BME280;39954;48.844;9.726;2024-01-30T00:14:15;97375.44;;;-1.64;100.00
54038;BME280;39954;48.844;9.726;2024-01-30T00:15:18;97377.13;;;-1.64;100.00
54038;BME280;39954;48.844;9.726;2024-01-30T00:16:23;97381.38;;;-1.65;100.00
54038;BME280;39954;48.844;9.726;2024-01-30T00:17:28;97388.16;;;-1.67;100.00
54038;BME280;39954;48.844;9.726;2024-01-30T00:18:33;97383.91;;;-1.68;100.00
54038;BME280;39954;48.844;9.726;2024-01-30T00:19:35;97381.34;;;-1.68;100.00
54038;BME280;39954;48.844;9.726;2024-01-30T00:20:40;97381.34;;;-1.68;100.00
54038;BME280;39954;48.844;9.726;2024-01-30T00:21:45;97386.47;;;-1.65;100.00
54038;BME280;39954;48.844;9.726;2024-01-30T00:22:50;97382.19;;;-1.67;100.00
54038;BME280;39954;48.844;9.726;2024-01-30T00:23:52;97386.44;;;-1.68;100.00
54038;BME280;39954;48.844;9.726;2024-01-30T00:24:54;97388.16;;;-1.67;100.00
54038;BME280;39954;48.844;9.726;2024-01-30T00:25:59;97389.81;;;-1.69;100.00
54038;BME280;39954;48.844;9.726;2024-01-30T00:27:01;97389.03;;;-1.65;100.00
54038;BME280;39954;48.844;9.726;2024-01-30T00:28:06;97388.19;;;-1.64;100.00
54038;BME280;39954;48.844;9.726;2024-01-30T00:29:08;97389.00;;;-1.66;100.00
54038;BME280;39954;48.844;9.726;2024-01-30T00:30:12;97388.19;;;-1.64;100.00
54038;BME280;39954;48.844;9.726;2024-01-30T00:31:17;97389.84;;;-1.66;100.00
54038;BME280;39954;48.844;9.726;2024-01-30T00:32:19;97389.00;;;-1.66;100.00
54038;BME280;39954;48.844;9.726;2024-01-30T00:33:25;97394.09;;;-1.68;100.00
54038;BME280;39954;48.844;9.726;2024-01-30T00:34:27;97390.69;;;-1.67;100.00
54038;BME280;39954;48.844;9.726;2024-01-30T00:35:32;97388.19;;;-1.64;100.00
54038;BME280;39954;48.844;9.726;2024-01-30T00:36:34;97392.44;;;-1.63;100.00
54038;BME280;39954;48.844;9.726;2024-01-30T00:37:42;97394.16;;;-1.62;100.00
54038;BME280;39954;48.844;9.726;2024-01-30T00:38:44;97390.72;;;-1.64;100.00
54038;BME280;39954;48.844;9.726;2024-01-30T00:39:49;97394.09;;;-1.66;100.00
54038;BME280;39954;48.844;9.726;2024-01-30T00:40:51;97390.72;;;-1.65;100.00
54038;BME280;39954;48.844;9.726;2024-01-30T00:41:56;97390.66;;;-1.68;100.00
54038;BME280;39954;48.844;9.726;2024-01-30T00:42:58;97395.72;;;-1.71;100.00
54038;BME280;39954;48.844;9.726;2024-01-30T00:44:03;97383.84;;;-1.72;100.00
54038;BME280;39954;48.844;9.726;2024-01-30T00:45:11;97394.06;;;-1.71;100.00
54038;BME280;39954;48.844;9.726;2024-01-30T00:46:16;97388.16;;;-1.67;100.00
54038;BME280;39954;48.844;9.726;2024-01-30T00:47:19;97393.25;;;-1.67;100.00
54038;BME280;39954;48.844;9.726;2024-01-30T00:48:23;97391.53;;;-1.68;100.00
54038;BME280;39954;48.844;9.726;2024-01-30T00:49:27;97387.22;;;-1.72;100.00
54038;BME280;39954;48.844;9.726;2024-01-30T00:50:32;97388.03;;;-1.76;100.00
54038;BME280;39954;48.844;9.726;2024-01-30T00:51:35;97393.09;;;-1.79;100.00
54038;BME280;39954;48.844;9.726;2024-01-30T00:52:42;97388.00;;;-1.79;100.00
54038;BME280;39954;48.844;9.726;2024-01-30T00:53:47;97397.31;;;-1.81;100.00
54038;BME280;39954;48.844;9.726;2024-01-30T00:54:51;97389.63;;;-1.84;100.00
54038;BME280;39954;48.844;9.726;2024-01-30T00:55:54;97394.75;;;-1.84;100.00
54038;BME280;39954;48.844;9.726;2024-01-30T00:56:59;97393.00;;;-1.85;100.00
54038;BME280;39954;48.844;9.726;2024-01-30T00:58:01;97392.97;;;-1.88;100.00
54038;BME280;39954;48.844;9.726;2024-01-30T00:59:06;97393.81;;;-1.89;100.00
54038;BME280;39954;48.844;9.726;2024-01-30T01:00:09;97391.22;;;-1.92;100.00
54038;BME280;39954;48.844;9.726;2024-01-30T01:01:15;97391.22;;;-1.92;100.00
54038;BME280;39954;48.844;9.726;2024-01-30T01:02:18;97388.66;;;-1.94;100.00
54038;BME280;39954;48.844;9.726;2024-01-30T01:03:23;97392.94;;;-1.91;100.00
54038;BME280;39954;48.844;9.726;2024-01-30T01:04:25;97389.56;;;-1.90;100.00
54038;BME280;39954;48.844;9.726;2024-01-30T01:05:28;97381.03;;;-1.92;100.00
54038;BME280;39954;48.844;9.726;2024-01-30T01:06:33;97384.41;;;-1.93;100.00
54038;BME280;39954;48.844;9.726;2024-01-30T01:07:36;97389.59;;;-1.87;100.00
54038;BME280;39954;48.844;9.726;2024-01-30T01:08:44;97383.63;;;-1.89;100.00
54038;BME280;39954;48.844;9.726;2024-01-30T01:09:46;97388.69;;;-1.92;100.00
54038;BME280;39954;48.844;9.726;2024-01-30T01:10:51;97381.88;;;-1.92;100.00
54038;BME280;39954;48.844;9.726;2024-01-30T01:11:54;97389.56;;;-1.90;100.00
54038;BME280;39954;48.844;9.726;2024-01-30T01:12:58;97386.09;;;-1.94;100.00
54038;BME280;39954;48.844;9.726;2024-01-30T01:14:00;97389.50;;;-1.93;100.00
54038;BME280;39954;48.844;9.726;2024-01-30T01:15:07;97387.84;;;-1.93;100.00
54038;BME280;39954;48.844;9.726;2024-01-30T01:16:11;97391.25;;;-1.89;100.00
54038;BME280;39954;48.844;9.726;2024-01-30T01:17:16;97390.44;;;-1.87;100.00
54038;BME280;39954;48.844;9.726;2024-01-30T01:18:20;97392.16;;;-1.87;100.00
54038;BME280;39954;48.844;9.726;2024-01-30T01:19:22;97393.00;;;-1.85;100.00
54038;BME280;39954;48.844;9.726;2024-01-30T01:20:27;97404.94;;;-1.84;100.00
54038;BME280;39954;48.844;9.726;2024-01-30T01:21:29;97399.78;;;-1.86;100.00
54038;BME280;39954;48.844;9.726;2024-01-30T01:22:36;97399.78;;;-1.87;100.00
54038;BME280;39954;48.844;9.726;2024-01-30T01:23:40;97399.78;;;-1.87;100.00
54038;BME280;39954;48.844;9.726;2024-01-30T01:24:48;97398.09;;;-1.85;100.00
54038;BME280;39954;48.844;9.726;2024-01-30T01:25:50;97400.66;;;-1.87;100.00
54038;BME280;39954;48.844;9.726;2024-01-30T01:26:58;97399.75;;;-1.89;100.00
54038;BME280;39954;48.844;9.726;2024-01-30T01:28:00;97394.63;;;-1.92;100.00
54038;BME280;39954;48.844;9.726;2024-01-30T01:29:06;97395.50;;;-1.88;100.00
54038;BME280;39954;48.844;9.726;2024-01-30T01:30:12;97398.94;;;-1.86;100.00
54038;BME280;39954;48.844;9.726;2024-01-30T01:31:23;97400.69;;;-1.82;100.00
54038;BME280;39954;48.844;9.726;2024-01-30T01:32:26;97399.84;;;-1.84;100.00
54038;BME280;39954;48.844;9.726;2024-01-30T01:33:32;97401.53;;;-1.83;100.00
54038;BME280;39954;48.844;9.726;2024-01-30T01:34:34;97400.66;;;-1.85;100.00
54038;BME280;39954;48.844;9.726;2024-01-30T01:35:39;97395.56;;;-1.85;100.00
54038;BME280;39954;48.844;9.726;2024-01-30T01:36:42;97403.19;;;-1.85;100.00
54038;BME280;39954;48.844;9.726;2024-01-30T01:37:46;97398.94;;;-1.86;100.00
54038;BME280;39954;48.844;9.726;2024-01-30T01:38:48;97398.94;;;-1.86;100.00
54038;BME280;39954;48.844;9.726;2024-01-30T01:39:56;97406.59;;;-1.86;100.00
54038;BME280;39954;48.844;9.726;2024-01-30T01:40:58;97402.34;;;-1.87;100.00
54038;BME280;39954;48.844;9.726;2024-01-30T01:42:04;97404.91;;;-1.87;100.00
54038;BME280;39954;48.844;9.726;2024-01-30T01:43:06;97404.91;;;-1.87;100.00
54038;BME280;39954;48.844;9.726;2024-01-30T01:44:11;97399.78;;;-1.87;100.00
54038;BME280;39954;48.844;9.726;2024-01-30T01:45:13;97398.91;;;-1.88;100.00
54038;BME280;39954;48.844;9.726;2024-01-30T01:46:16;97410.00;;;-1.87;100.00
54038;BME280;39954;48.844;9.726;2024-01-30T01:47:22;97401.47;;;-1.89;100.00
54038;BME280;39954;48.844;9.726;2024-01-30T01:48:24;97403.97;;;-1.91;100.00
54038;BME280;39954;48.844;9.726;2024-01-30T01:49:30;97399.72;;;-1.92;100.00
54038;BME280;39954;48.844;9.726;2024-01-30T01:50:32;97396.28;;;-1.94;100.00
54038;BME280;39954;48.844;9.726;2024-01-30T01:51:38;97396.28;;;-1.95;100.00
54038;BME280;39954;48.844;9.726;2024-01-30T01:52:43;97394.56;;;-1.96;100.00
54038;BME280;39954;48.844;9.726;2024-01-30T01:53:48;97397.97;;;-1.97;100.00
54038;BME280;39954;48.844;9.726;2024-01-30T01:54:50;97396.25;;;-1.97;100.00
54038;BME280;39954;48.844;9.726;2024-01-30T01:55:57;97403.06;;;-1.97;100.00
54038;BME280;39954;48.844;9.726;2024-01-30T01:57:00;97403.91;;;-1.98;100.00
54038;BME280;39954;48.844;9.726;2024-01-30T01:58:05;97400.47;;;-2.00;100.00
54038;BME280;39954;48.844;9.726;2024-01-30T01:59:08;97403.00;;;-2.00;100.00
54038;BME280;39954;48.844;9.726;2024-01-30T02:00:14;97397.03;;;-2.03;100.00
54038;BME280;39954;48.844;9.726;2024-01-30T02:01:18;97406.38;;;-2.03;100.00
54038;BME280;39954;48.844;9.726;2024-01-30T02:02:23;97397.03;;;-2.04;100.00
54038;BME280;39954;48.844;9.726;2024-01-30T02:03:30;97402.97;;;-2.04;100.00
54038;BME280;39954;48.844;9.726;2024-01-30T02:04:32;97402.16;;;-2.01;100.00
54038;BME280;39954;48.844;9.726;2024-01-30T02:05:37;97400.47;;;-1.99;100.00
54038;BME280;39954;48.844;9.726;2024-01-30T02:06:40;97396.25;;;-1.98;100.00
54038;BME280;39954;48.844;9.726;2024-01-30T02:07:45;97393.72;;;-1.97;100.00
54038;BME280;39954;48.844;9.726;2024-01-30T02:08:48;97397.09;;;-1.96;100.00
54038;BME280;39954;48.844;9.726;2024-01-30T02:09:53;97395.44;;;-1.94;100.00
54038;BME280;39954;48.844;9.726;2024-01-30T02:10:58;97399.69;;;-1.93;100.00
54038;BME280;39954;48.844;9.726;2024-01-30T02:12:03;97404.84;;;-1.90;100.00
54038;BME280;39954;48.844;9.726;2024-01-30T02:13:05;97394.59;;;-1.93;100.00
54038;BME280;39954;48.844;9.726;2024-01-30T02:14:10;97398.84;;;-1.95;100.00
54038;BME280;39954;48.844;9.726;2024-01-30T02:15:13;97399.66;;;-1.96;100.00
54038;BME280;39954;48.844;9.726;2024-01-30T02:16:18;97397.97;;;-1.97;100.00
54038;BME280;39954;48.844;9.726;2024-01-30T02:17:20;97392.84;;;-1.97;100.00
54038;BME280;39954;48.844;9.726;2024-01-30T02:18:25;97394.53;;;-1.99;100.00
54038;BME280;39954;48.844;9.726;2024-01-30T02:19:28;97391.13;;;-2.01;100.00
54038;BME280;39954;48.844;9.726;2024-01-30T02:20:34;97397.91;;;-2.00;100.00
54038;BME280;39954;48.844;9.726;2024-01-30T02:21:39;97398.75;;;-2.01;100.00
54038;BME280;39954;48.844;9.726;2024-01-30T02:22:44;97396.25;;;-1.98;100.00
54038;BME280;39954;48.844;9.726;2024-01-30T02:23:47;97397.06;;;-1.99;100.00
54038;BME280;39954;48.844;9.726;2024-01-30T02:24:50;97398.81;;;-1.98;100.00
54038;BME280;39954;48.844;9.726;2024-01-30T02:25:55;97394.53;;;-1.99;100.00
54038;BME280;39954;48.844;9.726;2024-01-30T02:26:57;97396.28;;;-1.95;100.00
54038;BME280;39954;48.844;9.726;2024-01-30T02:28:02;97399.69;;;-1.93;100.00
54038;BME280;39954;48.844;9.726;2024-01-30T02:29:06;97394.59;;;-1.93;100.00
54038;BME280;39954;48.844;9.726;2024-01-30T02:30:12;97403.09;;;-1.94;100.00
54038;BME280;39954;48.844;9.726;2024-01-30T02:31:14;97399.66;;;-1.96;100.00
54038;BME280;39954;48.844;9.726;2024-01-30T02:32:19;97396.28;;;-1.95;100.00
54038;BME280;39954;48.844;9.726;2024-01-30T02:33:21;97390.31;;;-1.97;100.00
54038;BME280;39954;48.844;9.726;2024-01-30T02:34:26;97403.00;;;-1.99;100.00
54038;BME280;39954;48.844;9.726;2024-01-30T02:35:28;97397.97;;;-1.97;100.00
54038;BME280;39954;48.844;9.726;2024-01-30T02:36:38;97394.53;;;-1.99;100.00
54038;BME280;39954;48.844;9.726;2024-01-30T02:37:44;97396.22;;;-2.01;100.00
54038;BME280;39954;48.844;9.726;2024-01-30T02:38:48;97391.97;;;-2.01;100.00
54038;BME280;39954;48.844;9.726;2024-01-30T02:39:50;97392.81;;;-2.00;100.00
54038;BME280;39954;48.844;9.726;2024-01-30T02:40:55;97392.81;;;-1.99;100.00
54038;BME280;39954;48.844;9.726;2024-01-30T02:41:58;97395.34;;;-2.04;100.00
54038;BME280;39954;48.844;9.726;2024-01-30T02:43:03;97390.19;;;-2.05;100.00
54038;BME280;39954;48.844;9.726;2024-01-30T02:44:06;97392.75;;;-2.07;100.00
54038;BME280;39954;48.844;9.726;2024-01-30T02:45:12;97391.06;;;-2.06;100.00
54038;BME280;39954;48.844;9.726;2024-01-30T02:46:14;97393.56;;;-2.08;100.00
54038;BME280;39954;48.844;9.726;2024-01-30T02:47:19;97396.09;;;-2.08;100.00
54038;BME280;39954;48.844;9.726;2024-01-30T02:48:21;97397.75;;;-2.11;100.00
54038;BME280;39954;48.844;9.726;2024-01-30T02:49:26;97393.50;;;-2.12;100.00
54038;BME280;39954;48.844;9.726;2024-01-30T02:50:28;97390.13;;;-2.13;100.00
54038;BME280;39954;48.844;9.726;2024-01-30T02:51:33;97390.94;;;-2.14;100.00
54038;BME280;39954;48.844;9.726;2024-01-30T02:52:38;97396.84;;;-2.16;100.00
54038;BME280;39954;48.844;9.726;2024-01-30T02:53:45;97393.44;;;-2.17;100.00
54038;BME280;39954;48.844;9.726;2024-01-30T02:54:47;97391.75;;;-2.16;100.00
54038;BME280;39954;48.844;9.726;2024-01-30T02:55:52;97389.25;;;-2.13;100.00
54038;BME280;39954;48.844;9.726;2024-01-30T02:56:55;97396.03;;;-2.14;100.00
54038;BME280;39954;48.844;9.726;2024-01-30T02:57:59;97395.25;;;-2.10;100.00
54038;BME280;39954;48.844;9.726;2024-01-30T02:59:02;97391.06;;;-2.06;100.00
54038;BME280;39954;48.844;9.726;2024-01-30T03:00:08;97395.25;;;-2.08;100.00
54038;BME280;39954;48.844;9.726;2024-01-30T03:01:11;97398.66;;;-2.08;100.00
54038;BME280;39954;48.844;9.726;2024-01-30T03:02:16;97393.50;;;-2.12;100.00
54038;BME280;39954;48.844;9.726;2024-01-30T03:03:18;97392.59;;;-2.16;100.00
54038;BME280;39954;48.844;9.726;2024-01-30T03:04:23;97390.84;;;-2.20;100.00
54038;BME280;39954;48.844;9.726;2024-01-30T03:05:25;97391.66;;;-2.22;100.00
54038;BME280;39954;48.844;9.726;2024-01-30T03:06:30;97389.94;;;-2.25;100.00
54038;BME280;39954;48.844;9.726;2024-01-30T03:07:33;97392.44;;;-2.28;100.00
54038;BME280;39954;48.844;9.726;2024-01-30T03:08:39;97389.88;;;-2.30;100.00
54038;BME280;39954;48.844;9.726;2024-01-30T03:09:44;97387.31;;;-2.31;100.00
54038;BME280;39954;48.844;9.726;2024-01-30T03:10:46;97394.91;;;-2.34;100.00
54038;BME280;39954;48.844;9.726;2024-01-30T03:11:51;97390.63;;;-2.37;100.00
54038;BME280;39954;48.844;9.726;2024-01-30T03:12:53;97394.00;;;-2.36;100.00
54038;BME280;39954;48.844;9.726;2024-01-30T03:13:58;97388.06;;;-2.37;100.00
54038;BME280;39954;48.844;9.726;2024-01-30T03:15:00;97396.56;;;-2.36;100.00
54038;BME280;39954;48.844;9.726;2024-01-30T03:16:06;97398.25;;;-2.35;100.00
54038;BME280;39954;48.844;9.726;2024-01-30T03:17:08;97390.63;;;-2.37;100.00
54038;BME280;39954;48.844;9.726;2024-01-30T03:18:10;97394.84;;;-2.37;100.00
54038;BME280;39954;48.844;9.726;2024-01-30T03:19:15;97394.81;;;-2.39;100.00
54038;BME280;39954;48.844;9.726;2024-01-30T03:20:17;97395.63;;;-2.41;100.00
54038;BME280;39954;48.844;9.726;2024-01-30T03:21:19;97393.94;;;-2.42;100.00
54038;BME280;39954;48.844;9.726;2024-01-30T03:22:24;97390.50;;;-2.44;100.00
54038;BME280;39954;48.844;9.726;2024-01-30T03:23:27;97394.78;;;-2.42;100.00
54038;BME280;39954;48.844;9.726;2024-01-30T03:24:35;97393.94;;;-2.42;100.00
54038;BME280;39954;48.844;9.726;2024-01-30T03:25:37;97394.78;;;-2.43;100.00
54038;BME280;39954;48.844;9.726;2024-01-30T03:26:40;97402.41;;;-2.43;100.00
54038;BME280;39954;48.844;9.726;2024-01-30T03:27:44;97399.78;;;-2.48;100.00
54038;BME280;39954;48.844;9.726;2024-01-30T03:28:47;97400.59;;;-2.51;100.00
54038;BME280;39954;48.844;9.726;2024-01-30T03:29:49;97403.09;;;-2.52;100.00
54038;BME280;39954;48.844;9.726;2024-01-30T03:30:54;97400.56;;;-2.52;100.00
54038;BME280;39954;48.844;9.726;2024-01-30T03:31:56;97398.84;;;-2.53;100.00
54038;BME280;39954;48.844;9.726;2024-01-30T03:33:01;97400.53;;;-2.54;100.00
54038;BME280;39954;48.844;9.726;2024-01-30T03:34:03;97395.41;;;-2.55;100.00
54038;BME280;39954;48.844;9.726;2024-01-30T03:35:09;97391.22;;;-2.55;100.00
54038;BME280;39954;48.844;9.726;2024-01-30T03:36:11;97402.22;;;-2.56;100.00
54038;BME280;39954;48.844;9.726;2024-01-30T03:37:16;97387.75;;;-2.58;100.00
54038;BME280;39954;48.844;9.726;2024-01-30T03:38:18;97397.91;;;-2.60;100.00
54038;BME280;39954;48.844;9.726;2024-01-30T03:39:23;97401.28;;;-2.61;100.00
54038;BME280;39954;48.844;9.726;2024-01-30T03:40:28;97391.09;;;-2.61;100.00
54038;BME280;39954;48.844;9.726;2024-01-30T03:41:30;97390.31;;;-2.57;100.00
54038;BME280;39954;48.844;9.726;2024-01-30T03:42:35;97395.41;;;-2.57;100.00
54038;BME280;39954;48.844;9.726;2024-01-30T03:43:38;97390.31;;;-2.57;100.00
54038;BME280;39954;48.844;9.726;2024-01-30T03:44:42;97394.56;;;-2.56;100.00
54038;BME280;39954;48.844;9.726;2024-01-30T03:45:45;97393.69;;;-2.58;100.00
54038;BME280;39954;48.844;9.726;2024-01-30T03:46:50;97388.59;;;-2.58;100.00
54038;BME280;39954;48.844;9.726;2024-01-30T03:47:52;97391.97;;;-2.59;100.00
54038;BME280;39954;48.844;9.726;2024-01-30T03:48:57;97391.97;;;-2.59;100.00
54038;BME280;39954;48.844;9.726;2024-01-30T03:49:59;97397.09;;;-2.57;100.00
54038;BME280;39954;48.844;9.726;2024-01-30T03:51:04;97398.78;;;-2.58;100.00
54038;BME280;39954;48.844;9.726;2024-01-30T03:52:07;97400.50;;;-2.57;100.00
54038;BME280;39954;48.844;9.726;2024-01-30T03:53:12;97402.22;;;-2.56;100.00
54038;BME280;39954;48.844;9.726;2024-01-30T03:54:14;97398.78;;;-2.58;100.00
54038;BME280;39954;48.844;9.726;2024-01-30T03:55:19;97397.91;;;-2.58;100.00
54038;BME280;39954;48.844;9.726;2024-01-30T03:56:24;97398.78;;;-2.58;100.00
54038;BME280;39954;48.844;9.726;2024-01-30T03:57:29;97400.50;;;-2.57;100.00
54038;BME280;39954;48.844;9.726;2024-01-30T03:58:31;97396.22;;;-2.58;100.00
54038;BME280;39954;48.844;9.726;2024-01-30T03:59:36;97399.63;;;-2.59;100.00
54038;BME280;39954;48.844;9.726;2024-01-30T04:00:38;97399.63;;;-2.59;100.00
54038;BME280;39954;48.844;9.726;2024-01-30T04:01:46;97402.22;;;-2.56;100.00
54038;BME280;39954;48.844;9.726;2024-01-30T04:02:48;97407.28;;;-2.56;100.00
54038;BME280;39954;48.844;9.726;2024-01-30T04:03:53;97398.78;;;-2.58;100.00
54038;BME280;39954;48.844;9.726;2024-01-30T04:04:55;97403.06;;;-2.55;100.00
54038;BME280;39954;48.844;9.726;2024-01-30T04:06:00;97401.38;;;-2.55;100.00
54038;BME280;39954;48.844;9.726;2024-01-30T04:07:03;97406.47;;;-2.55;100.00
54038;BME280;39954;48.844;9.726;2024-01-30T04:08:08;97404.69;;;-2.59;100.00
54038;BME280;39954;48.844;9.726;2024-01-30T04:09:10;97408.94;;;-2.58;100.00
54038;BME280;39954;48.844;9.726;2024-01-30T04:10:13;97402.13;;;-2.62;100.00
54038;BME280;39954;48.844;9.726;2024-01-30T04:11:18;97409.72;;;-2.63;100.00
54038;BME280;39954;48.844;9.726;2024-01-30T04:12:23;97413.09;;;-2.64;100.00
54038;BME280;39954;48.844;9.726;2024-01-30T04:13:25;97408.84;;;-2.64;100.00
54038;BME280;39954;48.844;9.726;2024-01-30T04:14:30;97413.94;;;-2.64;100.00
54038;BME280;39954;48.844;9.726;2024-01-30T04:15:32;97402.88;;;-2.67;100.00
54038;BME280;39954;48.844;9.726;2024-01-30T04:16:37;97404.56;;;-2.68;100.00
54038;BME280;39954;48.844;9.726;2024-01-30T04:17:39;97410.47;;;-2.71;100.00
54038;BME280;39954;48.844;9.726;2024-01-30T04:18:44;97401.94;;;-2.74;100.00
54038;BME280;39954;48.844;9.726;2024-01-30T04:19:46;97401.94;;;-2.74;100.00
54038;BME280;39954;48.844;9.726;2024-01-30T04:20:51;97408.66;;;-2.76;100.00
54038;BME280;39954;48.844;9.726;2024-01-30T04:21:53;97408.66;;;-2.76;100.00
54038;BME280;39954;48.844;9.726;2024-01-30T04:22:59;97405.25;;;-2.78;100.00
54038;BME280;39954;48.844;9.726;2024-01-30T04:24:01;97406.94;;;-2.79;100.00
54038;BME280;39954;48.844;9.726;2024-01-30T04:25:07;97404.34;;;-2.82;100.00
54038;BME280;39954;48.844;9.726;2024-01-30T04:26:09;97408.56;;;-2.82;100.00
54038;BME280;39954;48.844;9.726;2024-01-30T04:27:11;97406.00;;;-2.85;100.00
54038;BME280;39954;48.844;9.726;2024-01-30T04:28:18;97407.63;;;-2.87;100.00
54038;BME280;39954;48.844;9.726;2024-01-30T04:29:21;97405.94;;;-2.88;100.00
54038;BME280;39954;48.844;9.726;2024-01-30T04:30:26;97405.94;;;-2.87;100.00
54038;BME280;39954;48.844;9.726;2024-01-30T04:31:28;97420.41;;;-2.84;100.00
54038;BME280;39954;48.844;9.726;2024-01-30T04:32:33;97413.63;;;-2.85;100.00
54038;BME280;39954;48.844;9.726;2024-01-30T04:33:36;97414.44;;;-2.86;100.00
54038;BME280;39954;48.844;9.726;2024-01-30T04:34:41;97411.03;;;-2.87;100.00
54038;BME280;39954;48.844;9.726;2024-01-30T04:35:44;97415.28;;;-2.87;100.00
54038;BME280;39954;48.844;9.726;2024-01-30T04:36:51;97413.63;;;-2.85;100.00
54038;BME280;39954;48.844;9.726;2024-01-30T04:37:55;97417.06;;;-2.80;100.00
54038;BME280;39954;48.844;9.726;2024-01-30T04:38:58;97412.88;;;-2.80;100.00
54038;BME280;39954;48.844;9.726;2024-01-30T04:40:03;97416.25;;;-2.79;100.00
54038;BME280;39954;48.844;9.726;2024-01-30T04:41:05;97410.38;;;-2.75;100.00
54038;BME280;39954;48.844;9.726;2024-01-30T04:42:10;97410.41;;;-2.72;100.00
54038;BME280;39954;48.844;9.726;2024-01-30T04:43:12;97410.41;;;-2.72;100.00
54038;BME280;39954;48.844;9.726;2024-01-30T04:44:20;97408.78;;;-2.70;100.00
54038;BME280;39954;48.844;9.726;2024-01-30T04:45:22;97416.44;;;-2.68;100.00
54038;BME280;39954;48.844;9.726;2024-01-30T04:46:27;97415.63;;;-2.66;100.00
54038;BME280;39954;48.844;9.726;2024-01-30T04:47:30;97412.19;;;-2.68;100.00
54038;BME280;39954;48.844;9.726;2024-01-30T04:48:35;97411.34;;;-2.67;100.00
54038;BME280;39954;48.844;9.726;2024-01-30T04:49:38;97413.06;;;-2.67;100.00
54038;BME280;39954;48.844;9.726;2024-01-30T04:50:43;97411.34;;;-2.68;100.00
54038;BME280;39954;48.844;9.726;2024-01-30T04:51:45;97408.81;;;-2.68;100.00
54038;BME280;39954;48.844;9.726;2024-01-30T04:52:50;97413.06;;;-2.67;100.00
54038;BME280;39954;48.844;9.726;2024-01-30T04:53:52;97408.78;;;-2.70;100.00
54038;BME280;39954;48.844;9.726;2024-01-30T04:54:57;97409.63;;;-2.71;100.00
54038;BME280;39954;48.844;9.726;2024-01-30T04:55:59;97407.03;;;-2.74;100.00
54038;BME280;39954;48.844;9.726;2024-01-30T04:57:05;97409.56;;;-2.74;100.00
54038;BME280;39954;48.844;9.726;2024-01-30T04:58:10;97407.88;;;-2.74;100.00
54038;BME280;39954;48.844;9.726;2024-01-30T04:59:15;97411.22;;;-2.75;100.00
54038;BME280;39954;48.844;9.726;2024-01-30T05:00:20;97407.81;;;-2.75;100.00
54038;BME280;39954;48.844;9.726;2024-01-30T05:01:25;97412.97;;;-2.74;100.00
54038;BME280;39954;48.844;9.726;2024-01-30T05:02:27;97418.91;;;-2.73;100.00
54038;BME280;39954;48.844;9.726;2024-01-30T05:03:33;97415.50;;;-2.74;100.00
54038;BME280;39954;48.844;9.726;2024-01-30T05:04:36;97416.34;;;-2.73;100.00
54038;BME280;39954;48.844;9.726;2024-01-30T05:05:41;97413.81;;;-2.73;100.00
54038;BME280;39954;48.844;9.726;2024-01-30T05:06:43;97418.91;;;-2.73;100.00
54038;BME280;39954;48.844;9.726;2024-01-30T05:07:48;97417.19;;;-2.74;100.00
54038;BME280;39954;48.844;9.726;2024-01-30T05:08:50;97416.34;;;-2.73;100.00
54038;BME280;39954;48.844;9.726;2024-01-30T05:09:55;97416.34;;;-2.73;100.00
54038;BME280;39954;48.844;9.726;2024-01-30T05:11:00;97418.00;;;-2.75;100.00
54038;BME280;39954;48.844;9.726;2024-01-30T05:12:07;97414.59;;;-2.77;100.00
54038;BME280;39954;48.844;9.726;2024-01-30T05:13:09;97417.16;;;-2.77;100.00
54038;BME280;39954;48.844;9.726;2024-01-30T05:14:15;97414.56;;;-2.79;100.00
54038;BME280;39954;48.844;9.726;2024-01-30T05:15:21;97418.81;;;-2.79;100.00
54038;BME280;39954;48.844;9.726;2024-01-30T05:16:25;97423.06;;;-2.78;100.00
54038;BME280;39954;48.844;9.726;2024-01-30T05:17:27;97413.72;;;-2.79;100.00
54038;BME280;39954;48.844;9.726;2024-01-30T05:18:32;97417.94;;;-2.80;100.00
54038;BME280;39954;48.844;9.726;2024-01-30T05:19:36;97418.81;;;-2.79;100.00
54038;BME280;39954;48.844;9.726;2024-01-30T05:20:42;97415.41;;;-2.78;100.00
54038;BME280;39954;48.844;9.726;2024-01-30T05:21:44;97413.72;;;-2.79;100.00
54038;BME280;39954;48.844;9.726;2024-01-30T05:22:49;97415.47;;;-2.77;100.00
54038;BME280;39954;48.844;9.726;2024-01-30T05:23:51;97421.41;;;-2.76;100.00
54038;BME280;39954;48.844;9.726;2024-01-30T05:24:56;97412.91;;;-2.77;100.00
54038;BME280;39954;48.844;9.726;2024-01-30T05:25:58;97420.56;;;-2.75;100.00
54038;BME280;39954;48.844;9.726;2024-01-30T05:27:04;97415.47;;;-2.75;100.00
54038;BME280;39954;48.844;9.726;2024-01-30T05:28:06;97417.19;;;-2.74;100.00
54038;BME280;39954;48.844;9.726;2024-01-30T05:29:11;97414.63;;;-2.76;100.00
54038;BME280;39954;48.844;9.726;2024-01-30T05:30:15;97417.19;;;-2.74;100.00
54038;BME280;39954;48.844;9.726;2024-01-30T05:31:22;97419.75;;;-2.73;100.00
54038;BME280;39954;48.844;9.726;2024-01-30T05:32:24;97417.19;;;-2.74;100.00
54038;BME280;39954;48.844;9.726;2024-01-30T05:33:29;97414.66;;;-2.73;100.00
54038;BME280;39954;48.844;9.726;2024-01-30T05:34:32;97417.19;;;-2.74;100.00